createdAt,value
2024-01-26T00:00:00.290Z,6.54
2024-01-26T00:02:27.190Z,6.51
2024-01-26T00:04:54.352Z,6.45
2024-01-26T00:07:21.533Z,6.42
2024-01-26T00:09:51.332Z,6.40
2024-01-26T00:12:18.847Z,6.39
2024-01-26T00:14:53.580Z,6.36
2024-01-26T00:17:20.439Z,6.34
2024-01-26T00:19:47.180Z,6.36
2024-01-26T00:22:14.568Z,6.41
2024-01-26T00:24:41.546Z,6.43
2024-01-26T00:27:08.548Z,6.45
2024-01-26T00:29:35.488Z,6.46
2024-01-26T00:32:02.988Z,6.49
2024-01-26T00:34:29.929Z,6.52
2024-01-26T00:37:00.840Z,6.53
2024-01-26T00:39:27.758Z,6.54
2024-01-26T00:41:54.568Z,6.52
2024-01-26T00:44:21.303Z,6.50
2024-01-26T00:46:48.086Z,6.47
2024-01-26T00:49:15.121Z,6.44
2024-01-26T00:51:41.914Z,6.39
2024-01-26T00:54:08.853Z,6.33
2024-01-26T00:56:35.548Z,6.28
2024-01-26T00:59:02.276Z,6.27
2024-01-26T01:01:30.313Z,6.27
2024-01-26T01:03:57.274Z,6.28
2024-01-26T01:06:24.082Z,6.26
2024-01-26T01:08:50.941Z,6.27
2024-01-26T01:11:17.831Z,6.28
2024-01-26T01:13:44.730Z,6.28
2024-01-26T01:16:13.809Z,6.28
2024-01-26T01:18:40.987Z,6.27
2024-01-26T01:21:08.379Z,6.25
2024-01-26T01:23:35.292Z,6.23
2024-01-26T01:26:02.197Z,6.22
2024-01-26T01:28:29.395Z,6.21
2024-01-26T01:30:56.128Z,6.19
2024-01-26T01:33:23.209Z,6.19
2024-01-26T01:35:50.177Z,6.21
2024-01-26T01:38:17.963Z,6.22
2024-01-26T01:40:44.747Z,6.24
2024-01-26T01:43:19.107Z,6.25
2024-01-26T01:45:46.247Z,6.25
2024-01-26T01:48:13.287Z,6.21
2024-01-26T01:50:40.562Z,6.16
2024-01-26T01:53:08.653Z,6.13
2024-01-26T01:55:38.132Z,6.12
2024-01-26T01:58:05.183Z,6.11
2024-01-26T02:00:33.825Z,6.12
2024-01-26T02:03:00.892Z,6.14
2024-01-26T02:05:27.697Z,6.14
2024-01-26T02:07:54.550Z,6.14
2024-01-26T02:10:21.859Z,6.14
2024-01-26T02:12:48.603Z,6.14
2024-01-26T02:15:15.524Z,6.13
2024-01-26T02:17:42.606Z,6.11
2024-01-26T02:20:11.011Z,6.09
2024-01-26T02:22:40.078Z,6.07
2024-01-26T02:25:07.815Z,6.06
2024-01-26T02:27:35.399Z,6.05
2024-01-26T02:30:02.811Z,6.05
2024-01-26T02:32:29.793Z,6.04
2024-01-26T02:34:56.633Z,6.04
2024-01-26T02:37:23.413Z,6.05
2024-01-26T02:39:50.242Z,6.04
2024-01-26T02:42:16.998Z,6.02
2024-01-26T02:44:44.028Z,6.02
2024-01-26T02:47:10.812Z,6.02
2024-01-26T02:49:43.874Z,6.03
2024-01-26T02:52:13.745Z,6.03
2024-01-26T02:54:40.814Z,6.02
2024-01-26T02:57:10.886Z,5.98
2024-01-26T02:59:38.321Z,5.95
2024-01-26T03:02:05.559Z,5.94
2024-01-26T03:04:33.199Z,5.94
2024-01-26T03:07:00.694Z,5.96
2024-01-26T03:09:27.638Z,5.99
2024-01-26T03:11:55.056Z,6.02
2024-01-26T03:14:25.522Z,6.05
2024-01-26T03:16:52.348Z,6.07
2024-01-26T03:19:19.348Z,6.08
2024-01-26T03:21:46.778Z,6.09
2024-01-26T03:24:14.159Z,6.10
2024-01-26T03:26:44.843Z,6.10
2024-01-26T03:29:11.796Z,6.08
2024-01-26T03:31:38.848Z,6.06
2024-01-26T03:34:06.356Z,6.07
2024-01-26T03:36:36.932Z,6.09
2024-01-26T03:39:11.691Z,6.10
2024-01-26T03:41:42.563Z,6.13
2024-01-26T03:44:10.207Z,6.18
2024-01-26T03:46:42.188Z,6.21
2024-01-26T03:49:10.882Z,6.24
2024-01-26T03:51:38.296Z,6.24
2024-01-26T03:54:06.149Z,6.27
2024-01-26T03:56:33.186Z,6.30
2024-01-26T03:59:03.283Z,6.31
2024-01-26T04:01:30.356Z,6.32
2024-01-26T04:03:57.379Z,6.32
2024-01-26T04:06:24.876Z,6.31
2024-01-26T04:08:52.755Z,6.30
2024-01-26T04:11:19.794Z,6.28
2024-01-26T04:13:47.034Z,6.28
2024-01-26T04:16:17.200Z,6.28
2024-01-26T04:18:45.518Z,6.30
2024-01-26T04:21:13.288Z,6.32
2024-01-26T04:23:41.336Z,6.33
2024-01-26T04:26:08.457Z,6.34
2024-01-26T04:28:35.426Z,6.37
2024-01-26T04:31:02.305Z,6.39
2024-01-26T04:33:29.534Z,6.39
2024-01-26T04:35:56.578Z,6.39
2024-01-26T04:38:23.570Z,6.41
2024-01-26T04:40:53.983Z,6.44
2024-01-26T04:43:21.554Z,6.47
2024-01-26T04:45:51.479Z,6.49
2024-01-26T04:48:19.065Z,6.48
2024-01-26T04:50:46.379Z,6.48
2024-01-26T04:53:14.118Z,6.48
2024-01-26T04:55:42.790Z,6.48
2024-01-26T04:58:10.778Z,6.48
2024-01-26T05:00:38.200Z,6.49
2024-01-26T05:03:05.601Z,6.50
2024-01-26T05:05:32.729Z,6.50
2024-01-26T05:08:02.612Z,6.50
2024-01-26T05:10:30.065Z,6.50
2024-01-26T05:12:57.215Z,6.52
2024-01-26T05:15:24.423Z,6.53
2024-01-26T05:17:51.364Z,6.53
2024-01-26T05:20:18.681Z,6.54
2024-01-26T05:22:48.253Z,6.53
2024-01-26T05:25:15.226Z,6.55
2024-01-26T05:27:42.938Z,6.55
2024-01-26T05:30:10.492Z,6.49
2024-01-26T05:32:37.989Z,6.47
2024-01-26T05:35:06.213Z,6.44
2024-01-26T05:37:36.683Z,6.35
2024-01-26T05:40:07.912Z,6.15
2024-01-26T05:42:35.636Z,5.90
2024-01-26T05:45:06.616Z,5.65
2024-01-26T05:47:33.500Z,5.47
2024-01-26T05:50:00.705Z,5.39
2024-01-26T05:52:27.730Z,5.40
2024-01-26T05:54:54.941Z,5.42
2024-01-26T05:57:21.779Z,5.46
2024-01-26T05:59:49.019Z,5.50
2024-01-26T06:02:15.917Z,5.51
2024-01-26T06:04:43.331Z,5.48
2024-01-26T06:07:10.300Z,5.41
2024-01-26T06:09:37.213Z,5.37
2024-01-26T06:12:04.820Z,5.35
2024-01-26T06:14:32.007Z,5.30
2024-01-26T06:16:59.454Z,5.27
2024-01-26T06:19:26.902Z,5.27
2024-01-26T06:21:54.464Z,5.25
2024-01-26T06:24:21.567Z,5.23
2024-01-26T06:26:48.340Z,5.21
2024-01-26T06:29:15.165Z,5.21
2024-01-26T06:31:42.101Z,5.23
2024-01-26T06:34:09.214Z,5.26
2024-01-26T06:36:43.552Z,5.31
2024-01-26T06:39:11.089Z,5.35
2024-01-26T06:41:47.202Z,5.36
2024-01-26T06:44:15.579Z,5.35
2024-01-26T06:46:42.847Z,5.32
2024-01-26T06:49:12.027Z,5.30
2024-01-26T06:51:39.135Z,5.28
2024-01-26T06:54:06.016Z,5.28
2024-01-26T06:56:33.010Z,5.27
2024-01-26T06:59:00.194Z,5.28
2024-01-26T07:01:27.670Z,5.30
2024-01-26T07:03:54.759Z,5.34
2024-01-26T07:06:22.034Z,5.36
2024-01-26T07:08:49.138Z,5.36
2024-01-26T07:11:17.986Z,5.38
2024-01-26T07:13:45.005Z,5.38
2024-01-26T07:16:12.083Z,5.37
2024-01-26T07:18:39.319Z,5.36
2024-01-26T07:21:08.629Z,5.37
2024-01-26T07:23:35.816Z,5.38
2024-01-26T07:26:03.008Z,5.40
2024-01-26T07:28:30.221Z,5.42
2024-01-26T07:30:57.542Z,5.44
2024-01-26T07:33:25.132Z,5.45
2024-01-26T07:35:56.945Z,5.47
2024-01-26T07:38:29.989Z,5.47
2024-01-26T07:40:58.909Z,5.51
2024-01-26T07:43:26.083Z,5.55
2024-01-26T07:45:57.018Z,5.60
2024-01-26T07:48:27.046Z,5.66
2024-01-26T07:50:53.917Z,5.68
2024-01-26T07:53:20.786Z,5.71
2024-01-26T07:55:47.507Z,5.76
2024-01-26T07:58:14.434Z,5.80
2024-01-26T08:00:46.252Z,5.84
2024-01-26T08:03:13.575Z,5.93
2024-01-26T08:05:40.968Z,5.99
2024-01-26T08:08:08.561Z,6.08
2024-01-26T08:10:35.824Z,6.19
2024-01-26T08:13:02.897Z,6.30
2024-01-26T08:15:29.682Z,6.41
2024-01-26T08:17:56.698Z,6.51
2024-01-26T08:20:23.654Z,6.60
2024-01-26T08:22:50.756Z,6.68
2024-01-26T08:25:17.726Z,6.76
2024-01-26T08:27:44.583Z,6.84
2024-01-26T08:30:11.683Z,6.93
2024-01-26T08:32:38.528Z,6.99
2024-01-26T08:35:11.288Z,7.07
2024-01-26T08:37:39.589Z,7.17
2024-01-26T08:40:07.923Z,7.35
2024-01-26T08:42:35.234Z,7.64
2024-01-26T08:45:02.853Z,7.92
2024-01-26T08:47:29.843Z,8.16
2024-01-26T08:49:56.937Z,8.37
2024-01-26T08:52:23.722Z,8.56
2024-01-26T08:54:51.538Z,8.76
2024-01-26T08:57:18.714Z,8.91
2024-01-26T08:59:45.883Z,8.91
2024-01-26T09:02:12.802Z,8.83
2024-01-26T09:04:39.650Z,8.91
2024-01-26T09:07:10.516Z,9.06
2024-01-26T09:09:39.313Z,9.19
2024-01-26T09:12:06.448Z,9.29
2024-01-26T09:14:33.402Z,9.42
2024-01-26T09:17:01.994Z,9.55
2024-01-26T09:19:29.001Z,9.67
2024-01-26T09:21:55.747Z,9.83
2024-01-26T09:24:22.551Z,9.96
2024-01-26T09:26:51.276Z,10.11
2024-01-26T09:29:18.478Z,10.29
2024-01-26T09:31:45.174Z,10.39
2024-01-26T09:34:12.146Z,10.40
2024-01-26T09:36:39.068Z,10.33
2024-01-26T09:39:06.145Z,10.33
2024-01-26T09:41:33.925Z,10.31
2024-01-26T09:44:00.700Z,10.28
2024-01-26T09:46:27.833Z,10.31
2024-01-26T09:48:56.378Z,10.41
2024-01-26T09:51:23.657Z,10.52
2024-01-26T09:53:55.408Z,10.65
2024-01-26T09:56:22.638Z,10.70
2024-01-26T09:58:49.370Z,10.80
2024-01-26T10:01:22.722Z,10.95
2024-01-26T10:03:54.128Z,11.15
2024-01-26T10:06:21.911Z,11.32
2024-01-26T10:08:49.147Z,11.40
2024-01-26T10:11:15.917Z,11.49
2024-01-26T10:13:43.020Z,11.60
2024-01-26T10:16:14.323Z,11.60
2024-01-26T10:18:45.391Z,11.50
2024-01-26T10:21:13.445Z,11.46
2024-01-26T10:23:41.694Z,11.45
2024-01-26T10:26:11.991Z,11.59
2024-01-26T10:28:39.533Z,11.54
2024-01-26T10:31:07.060Z,11.36
2024-01-26T10:33:37.953Z,11.31
2024-01-26T10:36:06.957Z,11.21
2024-01-26T10:38:36.224Z,11.19
2024-01-26T10:41:04.886Z,11.11
2024-01-26T10:43:33.494Z,11.12
2024-01-26T10:46:03.210Z,11.19
2024-01-26T10:48:31.293Z,11.33
2024-01-26T10:50:59.857Z,11.40
2024-01-26T10:53:28.624Z,11.49
2024-01-26T10:55:56.360Z,11.60
2024-01-26T10:58:23.609Z,11.59
2024-01-26T11:00:51.284Z,11.57
2024-01-26T11:03:18.120Z,11.51
2024-01-26T11:05:51.772Z,11.45
2024-01-26T11:08:23.872Z,11.40
2024-01-26T11:10:52.495Z,11.45
2024-01-26T11:13:19.402Z,11.43
2024-01-26T11:15:48.376Z,11.50
2024-01-26T11:18:25.645Z,11.71
2024-01-26T11:20:53.080Z,11.90
2024-01-26T11:23:20.036Z,12.04
2024-01-26T11:25:51.332Z,12.10
2024-01-26T11:28:26.505Z,12.14
2024-01-26T11:31:00.951Z,12.16
2024-01-26T11:33:39.497Z,12.27
2024-01-26T11:36:10.595Z,12.36
2024-01-26T11:38:37.935Z,12.47
2024-01-26T11:41:05.161Z,12.49
2024-01-26T11:43:32.077Z,12.41
2024-01-26T11:45:59.086Z,12.30
2024-01-26T11:48:26.992Z,12.25
2024-01-26T11:50:54.542Z,12.21
2024-01-26T11:53:24.777Z,12.13
2024-01-26T11:55:53.543Z,12.01
2024-01-26T11:58:21.420Z,11.93
2024-01-26T12:00:48.602Z,11.95
2024-01-26T12:03:18.760Z,11.99
2024-01-26T12:05:46.054Z,11.98
2024-01-26T12:08:13.723Z,12.00
2024-01-26T12:10:41.413Z,12.01
2024-01-26T12:13:10.358Z,12.03
2024-01-26T12:15:41.797Z,12.01
2024-01-26T12:18:13.419Z,12.04
2024-01-26T12:20:41.922Z,12.06
2024-01-26T12:23:19.892Z,12.06
2024-01-26T12:25:50.763Z,12.11
2024-01-26T12:28:18.245Z,12.20
2024-01-26T12:30:48.524Z,12.26
2024-01-26T12:33:15.929Z,12.19
2024-01-26T12:35:43.221Z,12.17
2024-01-26T12:38:11.155Z,12.19
2024-01-26T12:40:38.274Z,12.20
2024-01-26T12:43:06.254Z,12.19
2024-01-26T12:45:33.763Z,12.16
2024-01-26T12:48:00.707Z,12.11
2024-01-26T12:50:27.579Z,12.05
2024-01-26T12:52:54.412Z,11.95
2024-01-26T12:55:21.657Z,11.82
2024-01-26T12:57:48.476Z,11.65
2024-01-26T13:00:16.727Z,11.55
2024-01-26T13:02:43.873Z,11.48
2024-01-26T13:05:11.376Z,11.41
2024-01-26T13:07:38.489Z,11.39
2024-01-26T13:10:06.406Z,11.43
2024-01-26T13:12:34.617Z,11.41
2024-01-26T13:15:01.707Z,11.36
2024-01-26T13:17:29.772Z,11.30
2024-01-26T13:20:04.800Z,11.24
2024-01-26T13:22:36.380Z,11.24
2024-01-26T13:25:03.546Z,11.22
2024-01-26T13:27:30.622Z,11.20
2024-01-26T13:29:57.365Z,11.22
2024-01-26T13:32:24.285Z,11.24
2024-01-26T13:34:51.219Z,11.21
2024-01-26T13:37:18.087Z,11.18
2024-01-26T13:39:44.833Z,11.21
2024-01-26T13:42:11.771Z,11.25
2024-01-26T13:44:38.565Z,11.29
2024-01-26T13:47:06.002Z,11.30
2024-01-26T13:49:32.960Z,11.30
2024-01-26T13:52:00.065Z,11.22
2024-01-26T13:54:27.122Z,11.15
2024-01-26T13:56:58.045Z,11.10
2024-01-26T13:59:24.873Z,11.03
2024-01-26T14:01:51.708Z,10.94
2024-01-26T14:04:20.799Z,10.93
2024-01-26T14:06:47.803Z,10.93
2024-01-26T14:09:14.768Z,10.90
2024-01-26T14:11:41.531Z,10.80
2024-01-26T14:14:08.622Z,10.70
2024-01-26T14:16:35.427Z,10.67
2024-01-26T14:19:02.274Z,10.67
2024-01-26T14:21:29.424Z,10.73
2024-01-26T14:23:56.158Z,10.78
2024-01-26T14:26:24.670Z,10.76
2024-01-26T14:28:52.793Z,10.77
2024-01-26T14:31:24.081Z,10.81
2024-01-26T14:33:50.934Z,10.85
2024-01-26T14:36:17.847Z,10.88
2024-01-26T14:38:45.187Z,10.91
2024-01-26T14:41:12.158Z,10.93
2024-01-26T14:43:39.087Z,10.93
2024-01-26T14:46:07.474Z,10.87
2024-01-26T14:48:34.795Z,10.76
2024-01-26T14:51:01.802Z,10.72
2024-01-26T14:53:31.517Z,10.71
2024-01-26T14:56:05.788Z,10.73
2024-01-26T14:58:32.574Z,10.68
2024-01-26T15:00:59.752Z,10.63
2024-01-26T15:03:26.667Z,10.62
2024-01-26T15:05:53.634Z,10.57
2024-01-26T15:08:20.657Z,10.48
2024-01-26T15:10:48.271Z,10.44
2024-01-26T15:13:14.997Z,10.46
2024-01-26T15:15:42.082Z,10.46
2024-01-26T15:18:09.691Z,10.46
2024-01-26T15:20:36.791Z,10.45
2024-01-26T15:23:03.859Z,10.44
2024-01-26T15:25:30.540Z,10.44
2024-01-26T15:27:57.217Z,10.44
2024-01-26T15:30:23.926Z,10.44
2024-01-26T15:32:50.861Z,10.43
2024-01-26T15:35:17.883Z,10.41
2024-01-26T15:37:45.002Z,10.40
2024-01-26T15:40:15.966Z,10.37
2024-01-26T15:42:43.298Z,10.32
2024-01-26T15:45:12.396Z,10.26
2024-01-26T15:47:42.999Z,10.17
2024-01-26T15:50:10.550Z,10.12
2024-01-26T15:52:45.123Z,10.06
2024-01-26T15:55:13.661Z,10.01
2024-01-26T15:57:40.544Z,9.98
2024-01-26T16:00:09.290Z,9.93
2024-01-26T16:02:36.239Z,9.88
2024-01-26T16:05:04.092Z,9.79
2024-01-26T16:07:31.222Z,9.68
2024-01-26T16:09:58.417Z,9.64
2024-01-26T16:12:25.682Z,9.59
2024-01-26T16:14:52.598Z,9.54
2024-01-26T16:17:19.705Z,9.49
2024-01-26T16:19:47.108Z,9.43
2024-01-26T16:22:14.132Z,9.38
2024-01-26T16:24:41.138Z,9.33
2024-01-26T16:27:07.900Z,9.28
2024-01-26T16:29:34.638Z,9.24
2024-01-26T16:32:01.304Z,9.22
2024-01-26T16:34:28.137Z,9.18
2024-01-26T16:36:55.000Z,9.15
2024-01-26T16:39:29.324Z,9.13
2024-01-26T16:41:59.075Z,9.13
2024-01-26T16:44:27.651Z,9.13
2024-01-26T16:46:54.476Z,9.13
2024-01-26T16:49:21.532Z,9.10
2024-01-26T16:51:48.379Z,9.05
2024-01-26T16:54:15.256Z,8.99
2024-01-26T16:56:42.644Z,8.96
2024-01-26T16:59:09.435Z,8.92
2024-01-26T17:01:36.251Z,8.88
2024-01-26T17:04:05.740Z,8.85
2024-01-26T17:06:32.999Z,8.79
2024-01-26T17:09:00.413Z,8.74
2024-01-26T17:11:27.135Z,8.67
2024-01-26T17:13:53.931Z,8.62
2024-01-26T17:16:20.662Z,8.57
2024-01-26T17:18:47.425Z,8.53
2024-01-26T17:21:14.349Z,8.53
2024-01-26T17:23:42.427Z,8.53
2024-01-26T17:26:09.293Z,8.50
2024-01-26T17:28:36.051Z,8.46
2024-01-26T17:31:04.199Z,8.41
2024-01-26T17:33:32.297Z,8.37
2024-01-26T17:35:59.197Z,8.36
2024-01-26T17:38:27.063Z,8.34
2024-01-26T17:40:54.055Z,8.31
2024-01-26T17:43:20.795Z,8.29
2024-01-26T17:45:47.573Z,8.28
2024-01-26T17:48:14.538Z,8.28
2024-01-26T17:50:41.382Z,8.28
2024-01-26T17:53:08.184Z,8.28
2024-01-26T17:55:40.142Z,8.27
2024-01-26T17:58:09.004Z,8.24
2024-01-26T18:00:36.964Z,8.20
2024-01-26T18:03:04.345Z,8.18
2024-01-26T18:05:31.392Z,8.18
2024-01-26T18:07:58.306Z,8.20
2024-01-26T18:10:25.475Z,8.18
2024-01-26T18:12:52.364Z,8.18
2024-01-26T18:15:19.613Z,8.17
2024-01-26T18:17:46.701Z,8.15
2024-01-26T18:20:14.144Z,8.14
2024-01-26T18:22:41.230Z,8.12
2024-01-26T18:25:08.657Z,8.08
2024-01-26T18:27:35.692Z,8.07
2024-01-26T18:30:03.088Z,8.03
2024-01-26T18:32:30.131Z,7.94
2024-01-26T18:34:57.427Z,7.89
2024-01-26T18:37:24.282Z,7.84
2024-01-26T18:39:51.064Z,7.80
2024-01-26T18:42:17.947Z,7.75
2024-01-26T18:44:44.858Z,7.61
2024-01-26T18:47:12.018Z,7.55
2024-01-26T18:49:41.836Z,7.47
2024-01-26T18:52:09.050Z,7.36
2024-01-26T18:54:37.299Z,7.21
2024-01-26T18:57:05.125Z,7.12
2024-01-26T18:59:33.412Z,7.10
2024-01-26T19:02:04.140Z,7.10
2024-01-26T19:04:32.933Z,7.12
2024-01-26T19:07:02.706Z,7.14
2024-01-26T19:09:31.121Z,7.03
2024-01-26T19:11:58.885Z,6.78
2024-01-26T19:14:26.970Z,6.69
2024-01-26T19:16:57.519Z,6.69
2024-01-26T19:19:24.332Z,6.75
2024-01-26T19:21:52.791Z,6.84
2024-01-26T19:24:20.167Z,6.88
2024-01-26T19:26:47.130Z,6.92
2024-01-26T19:29:14.161Z,6.95
2024-01-26T19:31:40.998Z,6.95
2024-01-26T19:34:07.908Z,6.77
2024-01-26T19:36:35.990Z,6.56
2024-01-26T19:39:02.980Z,6.48
2024-01-26T19:41:30.699Z,6.45
2024-01-26T19:44:01.008Z,6.46
2024-01-26T19:46:28.823Z,6.46
2024-01-26T19:48:56.383Z,6.45
2024-01-26T19:51:24.060Z,6.43
2024-01-26T19:53:51.126Z,6.31
2024-01-26T19:56:17.941Z,6.27
2024-01-26T19:58:44.797Z,6.14
2024-01-26T20:01:13.534Z,5.90
2024-01-26T20:03:45.531Z,5.77
2024-01-26T20:06:13.698Z,5.79
2024-01-26T20:08:43.173Z,5.84
2024-01-26T20:11:10.250Z,5.69
2024-01-26T20:13:38.229Z,5.49
2024-01-26T20:16:08.819Z,5.46
2024-01-26T20:18:37.380Z,5.53
2024-01-26T20:21:11.165Z,5.61
2024-01-26T20:23:39.406Z,5.66
2024-01-26T20:26:08.040Z,5.72
2024-01-26T20:28:38.148Z,5.73
2024-01-26T20:31:06.939Z,5.65
2024-01-26T20:33:35.005Z,5.57
2024-01-26T20:36:03.865Z,5.58
2024-01-26T20:38:32.099Z,5.63
2024-01-26T20:40:58.834Z,5.64
2024-01-26T20:43:27.066Z,5.64
2024-01-26T20:45:54.109Z,5.56
2024-01-26T20:48:21.166Z,5.50
2024-01-26T20:50:48.132Z,5.51
2024-01-26T20:53:15.161Z,5.53
2024-01-26T20:55:41.847Z,5.56
2024-01-26T20:58:08.600Z,5.62
2024-01-26T21:00:35.569Z,5.67
2024-01-26T21:03:03.185Z,5.65
2024-01-26T21:05:33.636Z,5.47
2024-01-26T21:08:01.643Z,5.39
2024-01-26T21:10:29.515Z,5.38
2024-01-26T21:12:57.402Z,5.36
2024-01-26T21:15:25.217Z,5.34
2024-01-26T21:17:52.448Z,5.34
2024-01-26T21:20:20.274Z,5.35
2024-01-26T21:22:52.003Z,5.32
2024-01-26T21:25:20.734Z,5.22
2024-01-26T21:27:47.575Z,5.16
2024-01-26T21:30:14.806Z,4.95
2024-01-26T21:32:42.044Z,4.77
2024-01-26T21:35:10.043Z,4.63
2024-01-26T21:37:38.323Z,4.56
2024-01-26T21:40:06.642Z,4.52
2024-01-26T21:42:33.768Z,4.47
2024-01-26T21:45:01.495Z,4.53
2024-01-26T21:47:28.774Z,4.62
2024-01-26T21:49:55.865Z,4.71
2024-01-26T21:52:23.475Z,4.68
2024-01-26T21:54:52.593Z,4.65
2024-01-26T21:57:19.758Z,4.62
2024-01-26T21:59:50.465Z,4.54
2024-01-26T22:02:18.134Z,4.52
2024-01-26T22:04:45.113Z,4.62
2024-01-26T22:07:12.398Z,4.73
2024-01-26T22:09:40.032Z,4.83
2024-01-26T22:12:07.321Z,4.95
2024-01-26T22:14:34.093Z,5.01
2024-01-26T22:17:01.033Z,5.04
2024-01-26T22:19:28.773Z,5.03
2024-01-26T22:21:55.764Z,5.04
2024-01-26T22:24:26.273Z,5.08
2024-01-26T22:26:53.572Z,5.12
2024-01-26T22:29:21.141Z,5.14
2024-01-26T22:31:48.095Z,5.14
2024-01-26T22:34:14.995Z,5.10
2024-01-26T22:36:42.362Z,5.04
2024-01-26T22:39:10.000Z,5.00
2024-01-26T22:41:36.898Z,4.98
2024-01-26T22:44:03.759Z,4.95
2024-01-26T22:46:30.637Z,4.93
2024-01-26T22:48:57.759Z,4.93
2024-01-26T22:51:24.761Z,4.91
2024-01-26T22:53:51.695Z,4.87
2024-01-26T22:56:18.603Z,4.84
2024-01-26T22:58:45.810Z,4.73
2024-01-26T23:01:13.449Z,4.58
2024-01-26T23:03:47.394Z,4.45
2024-01-26T23:06:20.874Z,4.40
2024-01-26T23:08:50.989Z,4.36
2024-01-26T23:11:21.602Z,4.31
2024-01-26T23:13:48.797Z,4.36
2024-01-26T23:16:18.329Z,4.39
2024-01-26T23:18:45.903Z,4.27
2024-01-26T23:21:14.071Z,4.11
2024-01-26T23:23:41.009Z,4.05
2024-01-26T23:26:07.802Z,4.02
2024-01-26T23:28:36.214Z,4.02
2024-01-26T23:31:03.042Z,4.00
2024-01-26T23:33:30.142Z,4.02
2024-01-26T23:35:57.804Z,4.07
2024-01-26T23:38:24.725Z,4.14
2024-01-26T23:40:51.478Z,4.17
2024-01-26T23:43:21.077Z,4.19
2024-01-26T23:45:47.935Z,4.21
2024-01-26T23:48:15.442Z,4.23
2024-01-26T23:50:42.578Z,4.22
2024-01-26T23:53:09.367Z,4.20
2024-01-26T23:55:36.527Z,4.20
2024-01-26T23:58:03.345Z,4.18
